Time;durP1;ratioP1;P1;durP2;ratioP2;P2;SDS_P1;SDS_P2;PMS_P1;PMS_P2;Temp;Humidity;BMP_temperature;BMP_pressure;BME280_temperature;BME280_humidity;BME280_pressure;Samples;Min_cycle;Max_cycle;Signal;HPM_P1;HPM_P2
2023/01/16 00:00:11;;;;;;;;;;;;;;;-144.99;90.07;52556.13;5103753;22;19960;-71
2023/01/16 00:02:38;;;;;;;;;;;;;;;-144.99;90.50;52623.38;5072371;28;19963;-72
2023/01/16 00:05:04;;;;;;;;;;;;;;;-144.99;89.68;52598.94;5080318;28;19944;-71
2023/01/16 00:07:31;;;;;;;;;;;;;;;-144.99;88.89;52607.09;5080161;28;19998;-71
2023/01/16 00:09:57;;;;;;;;;;;;;;;-144.99;89.23;52582.63;5078231;28;19963;-71
2023/01/16 00:12:24;;;;;;;;;;;;;;;-144.99;89.13;52558.16;5070935;28;20306;-72
2023/01/16 00:14:52;;;;;;;;;;;;;;;-144.99;89.30;52582.63;5059791;28;20391;-72
2023/01/16 00:17:18;;;;;;;;;;;;;;;-144.99;89.78;52584.66;5058440;28;19948;-71
2023/01/16 00:19:45;;;;;;;;;;;;;;;-144.99;88.23;52586.69;5074078;28;19968;-70
2023/01/16 00:22:11;;;;;;;;;;;;;;;-144.99;87.58;52570.38;5068799;28;19979;-69
2023/01/16 00:24:38;;;;;;;;;;;;;;;-144.99;89.23;52598.94;5063482;28;19942;-70
2023/01/16 00:27:04;;;;;;;;;;;;;;;-144.99;88.46;52639.69;5053874;28;19949;-71
2023/01/16 00:29:31;;;;;;;;;;;;;;;-144.99;88.86;52598.94;5053730;28;20302;-70
2023/01/16 00:31:59;;;;;;;;;;;;;;;-144.99;88.97;52596.88;5052209;28;19950;-70
2023/01/16 00:34:25;;;;;;;;;;;;;;;-144.99;88.12;52617.28;5050808;28;19941;-67
2023/01/16 00:36:52;;;;;;;;;;;;;;;-144.99;87.53;52576.50;5053806;28;19992;-67
2023/01/16 00:39:18;;;;;;;;;;;;;;;-144.99;88.93;52568.34;5071675;28;20408;-66
2023/01/16 00:41:45;;;;;;;;;;;;;;;-144.99;88.90;52578.53;5071460;28;20025;-67
2023/01/16 00:44:11;;;;;;;;;;;;;;;-144.99;89.16;52582.63;5063245;28;19943;-67
2023/01/16 00:46:38;;;;;;;;;;;;;;;-144.99;88.59;52594.84;5065131;28;19946;-66
2023/01/16 00:49:06;;;;;;;;;;;;;;;-144.99;89.03;52590.78;5074275;28;20500;-67
2023/01/16 00:51:32;;;;;;;;;;;;;;;-144.99;89.60;52607.09;5071900;28;19949;-67
2023/01/16 00:53:59;;;;;;;;;;;;;;;-144.99;89.09;52576.50;5058993;28;19945;-67
2023/01/16 00:56:25;;;;;;;;;;;;;;;-144.99;89.21;52590.78;5060433;28;20077;-68
2023/01/16 00:58:52;;;;;;;;;;;;;;;-144.99;89.76;52613.19;5072086;28;19951;-66
2023/01/16 01:01:18;;;;;;;;;;;;;;;-144.99;90.51;52566.31;5071204;28;19996;-68
2023/01/16 01:03:45;;;;;;;;;;;;;;;-144.99;89.66;52598.94;5057399;28;19942;-71
2023/01/16 01:06:13;;;;;;;;;;;;;;;-144.99;88.93;52586.69;5062909;28;19973;-72
2023/01/16 01:08:39;;;;;;;;;;;;;;;-144.99;89.88;52570.38;5063678;28;19946;-70
2023/01/16 01:11:07;;;;;;;;;;;;;;;-144.99;89.36;52617.28;5070553;28;20012;-71
2023/01/16 01:13:33;;;;;;;;;;;;;;;-144.99;89.51;52590.78;5053191;28;19945;-71
2023/01/16 01:16:00;;;;;;;;;;;;;;;-144.99;89.14;52603.00;5051448;28;19952;-71
2023/01/16 01:18:26;;;;;;;;;;;;;;;-144.99;88.16;52578.53;5051063;28;19961;-70
2023/01/16 01:20:53;;;;;;;;;;;;;;;-144.99;87.60;52574.47;5054606;28;19995;-70
2023/01/16 01:23:21;;;;;;;;;;;;;;;-144.99;87.13;52619.31;5058386;28;19944;-71
2023/01/16 01:25:48;;;;;;;;;;;;;;;-144.99;87.02;52590.78;5063111;28;19979;-70
2023/01/16 01:28:15;;;;;;;;;;;;;;;-144.99;86.74;52558.16;5075576;28;20008;-71
2023/01/16 01:30:41;;;;;;;;;;;;;;;-144.99;86.93;52603.00;5070287;28;20402;-70
2023/01/16 01:33:09;;;;;;;;;;;;;;;-144.99;86.56;52619.31;5058376;28;19941;-69
2023/01/16 01:35:35;;;;;;;;;;;;;;;-144.99;86.30;52623.38;5050787;28;19964;-69
2023/01/16 01:38:02;;;;;;;;;;;;;;;-144.99;86.05;52607.09;5062975;28;20294;-70
2023/01/16 01:40:30;;;;;;;;;;;;;;;-144.99;85.23;52558.16;5070009;28;19989;-68
2023/01/16 01:42:57;;;;;;;;;;;;;;;-144.99;85.16;52603.00;5062186;28;19958;-69
2023/01/16 01:45:24;;;;;;;;;;;;;;;-144.99;85.01;52576.50;5049972;28;20043;-69
2023/01/16 01:47:55;;;;;;;;;;;;;;;-144.99;84.36;52576.50;5051401;28;19947;-71
2023/01/16 01:50:27;;;;;;;;;;;;;;;-144.99;83.66;52568.34;5045526;28;20054;-70
2023/01/16 01:52:54;;;;;;;;;;;;;;;-144.99;83.20;52570.38;5055502;28;19995;-72
2023/01/16 01:55:22;;;;;;;;;;;;;;;-144.99;82.87;52615.25;5050753;28;20649;-70
2023/01/16 01:57:54;;;;;;;;;;;;;;;-144.99;82.44;52576.50;5051489;28;19953;-70
2023/01/16 02:00:22;;;;;;;;;;;;;;;-144.99;82.24;52598.94;5051268;28;19976;-73
2023/01/16 02:02:52;;;;;;;;;;;;;;;-144.99;82.67;52590.78;5049713;28;20050;-74
2023/01/16 02:05:22;;;;;;;;;;;;;;;-144.99;82.18;52580.59;5055869;28;20002;-84
2023/01/16 02:07:49;;;;;;;;;;;;;;;-144.99;81.86;52607.09;5075899;28;19951;-68
2023/01/16 02:10:21;;;;;;;;;;;;;;;-144.99;81.54;52598.94;5056597;28;19971;-68
2023/01/16 02:12:48;;;;;;;;;;;;;;;-144.99;81.21;52564.28;5048449;28;19946;-70
2023/01/16 02:15:15;;;;;;;;;;;;;;;-144.99;81.20;52574.47;5049929;28;20172;-66
2023/01/16 02:20:28;;;;;;;;;;;;;;;-144.99;80.85;52582.63;5069875;28;20463;-65
2023/01/16 02:23:28;;;;;;;;;;;;;;;-144.99;81.31;52580.59;5049715;28;20385;-64
2023/01/16 02:26:12;;;;;;;;;;;;;;;-144.99;82.00;52586.69;5061769;28;19990;-65
2023/01/16 02:28:57;;;;;;;;;;;;;;;-144.99;81.67;52582.63;5055151;28;19945;-71
2023/01/16 02:31:32;;;;;;;;;;;;;;;-144.99;82.16;52578.53;5049117;28;20335;-70
2023/01/16 02:34:07;;;;;;;;;;;;;;;-144.99;82.84;52590.78;5051846;28;20066;-70
2023/01/16 02:36:41;;;;;;;;;;;;;;;-144.99;83.68;52594.84;5046269;28;19998;-71
2023/01/16 02:39:14;;;;;;;;;;;;;;;-144.99;85.19;52611.16;5054319;28;19960;-70
2023/01/16 02:41:48;;;;;;;;;;;;;;;-144.99;86.25;52611.16;5067061;28;19997;-69
2023/01/16 02:44:19;;;;;;;;;;;;;;;-144.99;87.05;52627.47;5049139;28;19984;-68
2023/01/16 02:46:51;;;;;;;;;;;;;;;-144.99;86.58;52600.97;5066545;28;19994;-68
2023/01/16 02:49:22;;;;;;;;;;;;;;;-144.99;88.15;52609.13;5069079;28;20030;-68
2023/01/16 02:51:54;;;;;;;;;;;;;;;-144.99;88.20;52598.94;5068507;28;19951;-68
2023/01/16 02:54:24;;;;;;;;;;;;;;;-144.99;88.68;52631.53;5057390;28;20000;-68
2023/01/16 02:56:54;;;;;;;;;;;;;;;-144.99;89.48;52623.38;5051589;28;19946;-68
2023/01/16 02:59:22;;;;;;;;;;;;;;;-144.99;89.00;52603.00;5068781;28;20028;-67
2023/01/16 03:01:51;;;;;;;;;;;;;;;-144.99;89.56;52580.59;5066274;28;19978;-67
2023/01/16 03:04:36;;;;;;;;;;;;;;;-144.99;90.23;52605.03;5050077;28;19947;-66
2023/01/16 03:07:05;;;;;;;;;;;;;;;-144.99;88.85;52635.63;5049204;28;19965;-67
2023/01/16 03:09:36;;;;;;;;;;;;;;;-144.99;89.40;52598.94;5066914;28;20006;-67
2023/01/16 03:12:11;;;;;;;;;;;;;;;-144.99;89.48;52609.13;5054749;28;19977;-66
2023/01/16 03:14:43;;;;;;;;;;;;;;;-144.99;90.11;52582.63;5047226;28;20019;-67
2023/01/16 03:17:19;;;;;;;;;;;;;;;-144.99;89.78;52611.16;5049399;28;19954;-66
2023/01/16 03:19:53;;;;;;;;;;;;;;;-144.99;89.59;52607.09;5043874;28;19965;-66
2023/01/16 03:22:25;;;;;;;;;;;;;;;-144.99;89.42;52596.88;5053873;28;20033;-65
2023/01/16 03:24:58;;;;;;;;;;;;;;;-144.99;90.14;52615.25;5061952;28;20445;-66
2023/01/16 03:27:31;;;;;;;;;;;;;;;-144.99;90.28;52623.38;5057092;28;19965;-66
2023/01/16 03:29:59;;;;;;;;;;;;;;;-144.99;89.85;52566.31;5059544;28;19964;-66
2023/01/16 03:32:32;;;;;;;;;;;;;;;-144.99;90.43;52619.31;5048006;28;19945;-65
2023/01/16 03:35:01;;;;;;;;;;;;;;;-144.99;90.77;52611.16;5045703;28;20019;-67
2023/01/16 03:37:31;;;;;;;;;;;;;;;-144.99;91.20;52619.31;5036093;28;20465;-64
2023/01/16 03:40:01;;;;;;;;;;;;;;;-144.99;92.20;52611.16;5049297;28;20015;-66
2023/01/16 03:42:32;;;;;;;;;;;;;;;-144.99;92.00;52615.25;5061036;28;20403;-65
2023/01/16 03:45:02;;;;;;;;;;;;;;;-144.99;92.28;52647.84;5050751;28;19946;-63
2023/01/16 03:47:32;;;;;;;;;;;;;;;-144.99;92.07;52607.09;5068913;28;19948;-65
2023/01/16 03:50:00;;;;;;;;;;;;;;;-144.99;91.89;52582.63;5068610;28;19963;-64
2023/01/16 03:52:32;;;;;;;;;;;;;;;-144.99;90.90;52558.16;5059452;28;19943;-64
2023/01/16 03:55:02;;;;;;;;;;;;;;;-144.99;90.84;52603.00;5048239;28;19953;-64
2023/01/16 03:57:32;;;;;;;;;;;;;;;-144.99;91.53;52603.00;5060940;28;19949;-64
2023/01/16 04:00:00;;;;;;;;;;;;;;;-144.99;91.34;52588.75;5067947;28;20559;-65
2023/01/16 04:02:28;;;;;;;;;;;;;;;-144.99;91.02;52664.16;5060562;28;20318;-64
2023/01/16 04:05:00;;;;;;;;;;;;;;;-144.99;91.67;52584.66;5048182;28;20392;-65
2023/01/16 04:07:32;;;;;;;;;;;;;;;-144.99;91.63;52647.84;5050803;28;20014;-65
2023/01/16 04:10:00;;;;;;;;;;;;;;;-144.99;91.86;52586.69;5062349;28;20047;-68
2023/01/16 04:12:29;;;;;;;;;;;;;;;-144.99;93.56;52627.47;5054611;28;20353;-70
2023/01/16 04:14:58;;;;;;;;;;;;;;;-144.99;93.67;52623.38;5054614;28;19950;-70
2023/01/16 04:17:24;;;;;;;;;;;;;;;-144.99;92.85;52607.09;5055590;28;20203;-70
2023/01/16 04:19:51;;;;;;;;;;;;;;;-144.99;92.97;52596.88;5073755;28;19964;-70
2023/01/16 04:22:23;;;;;;;;;;;;;;;-144.99;93.45;52598.94;5054192;28;19991;-70
2023/01/16 04:24:50;;;;;;;;;;;;;;;-144.99;92.65;52594.84;5062306;28;19956;-69
2023/01/16 04:27:17;;;;;;;;;;;;;;;-144.99;92.28;52639.69;5069450;28;19999;-69
2023/01/16 04:29:44;;;;;;;;;;;;;;;-144.99;92.68;52603.00;5073241;28;20315;-69
2023/01/16 04:32:10;;;;;;;;;;;;;;;-144.99;92.42;52615.25;5058700;28;20201;-68
2023/01/16 04:34:37;;;;;;;;;;;;;;;-144.99;92.05;52570.38;5053066;28;19987;-69
2023/01/16 04:37:03;;;;;;;;;;;;;;;-144.99;91.84;52615.25;5072695;28;19946;-72
2023/01/16 04:39:31;;;;;;;;;;;;;;;-144.99;90.96;52623.38;5060471;28;19969;-71
2023/01/16 04:41:58;;;;;;;;;;;;;;;-144.99;90.92;52598.94;5065970;28;19942;-67
2023/01/16 04:44:24;;;;;;;;;;;;;;;-144.99;90.80;52603.00;5052370;28;20373;-66
2023/01/16 04:46:51;;;;;;;;;;;;;;;-144.99;91.39;52621.34;5071017;28;19947;-67
2023/01/16 04:49:17;;;;;;;;;;;;;;;-144.99;90.18;52586.69;5062641;28;20016;-67
2023/01/16 04:51:44;;;;;;;;;;;;;;;-144.99;89.99;52570.38;5050829;28;19947;-67
2023/01/16 04:54:14;;;;;;;;;;;;;;;-144.99;88.71;52582.63;5052599;28;19987;-67
2023/01/16 04:56:42;;;;;;;;;;;;;;;-144.99;89.37;52596.88;5051640;28;19997;-67
2023/01/16 04:59:09;;;;;;;;;;;;;;;-144.99;88.73;52582.63;5049872;28;19969;-67
2023/01/16 05:01:37;;;;;;;;;;;;;;;-144.99;89.07;52590.78;5064233;28;20014;-69
2023/01/16 05:04:04;;;;;;;;;;;;;;;-144.99;89.04;52574.47;5051956;28;20062;-68
2023/01/16 05:06:30;;;;;;;;;;;;;;;-144.99;88.45;52592.81;5058469;28;20257;-67
2023/01/16 05:08:57;;;;;;;;;;;;;;;-144.99;89.32;52607.09;5061678;28;19944;-66
2023/01/16 05:11:23;;;;;;;;;;;;;;;-144.99;89.00;52603.00;5053730;28;20359;-66
2023/01/16 05:13:51;;;;;;;;;;;;;;;-144.99;88.08;52566.31;5054199;28;20229;-66
2023/01/16 05:16:17;;;;;;;;;;;;;;;-144.99;87.23;52586.69;5049715;28;20004;-74
2023/01/16 05:18:44;;;;;;;;;;;;;;;-144.99;87.14;52607.09;5051294;28;19953;-70
2023/01/16 05:21:11;;;;;;;;;;;;;;;-144.99;87.84;52590.78;5049328;28;19981;-73
2023/01/16 05:23:38;;;;;;;;;;;;;;;-144.99;88.80;52598.94;5051583;28;20006;-71
2023/01/16 05:26:05;;;;;;;;;;;;;;;-144.99;87.17;52594.84;5055114;28;20104;-71
2023/01/16 05:28:32;;;;;;;;;;;;;;;-144.99;87.73;52615.25;5068992;28;19943;-72
2023/01/16 05:31:00;;;;;;;;;;;;;;;-144.99;87.34;52586.69;5070201;28;19954;-72
2023/01/16 05:33:27;;;;;;;;;;;;;;;-144.99;87.14;52570.38;5042061;28;19989;-71
2023/01/16 05:35:53;;;;;;;;;;;;;;;-144.99;86.75;52566.31;5051172;28;19946;-71
2023/01/16 05:38:20;;;;;;;;;;;;;;;-144.99;86.75;52603.00;5050921;28;20388;-72
2023/01/16 05:40:47;;;;;;;;;;;;;;;-144.99;86.80;52611.16;5055503;28;19985;-73
2023/01/16 05:43:13;;;;;;;;;;;;;;;-144.99;86.65;52554.09;5051128;28;20484;-71
2023/01/16 05:45:40;;;;;;;;;;;;;;;-144.99;86.93;52600.97;5054174;28;19947;-71
2023/01/16 05:48:08;;;;;;;;;;;;;;;-144.99;86.11;52582.63;5058670;28;19944;-66
2023/01/16 05:50:34;;;;;;;;;;;;;;;-144.99;86.26;52568.34;5049550;28;19960;-74
2023/01/16 05:53:01;;;;;;;;;;;;;;;-144.99;86.43;52594.84;5054037;28;19945;-73
2023/01/16 05:55:27;;;;;;;;;;;;;;;-144.99;86.17;52619.31;5053736;28;19944;-74
2023/01/16 05:57:54;;;;;;;;;;;;;;;-144.99;85.98;52566.31;5050927;28;19945;-74
2023/01/16 06:00:20;;;;;;;;;;;;;;;-144.99;85.93;52594.84;5050004;28;20388;-74
2023/01/16 06:02:47;;;;;;;;;;;;;;;-144.99;85.47;52611.16;5053482;28;19958;-74
2023/01/16 06:05:15;;;;;;;;;;;;;;;-144.99;85.18;52609.13;5049904;28;19939;-71
2023/01/16 06:07:57;;;;;;;;;;;;;;;-144.99;85.71;52635.63;4864443;28;10000583;-73
2023/01/16 06:10:23;;;;;;;;;;;;;;;-144.99;85.28;52596.88;5064791;28;19954;-74
2023/01/16 06:12:50;;;;;;;;;;;;;;;-144.99;85.16;52607.09;5047246;28;19987;-73
2023/01/16 06:15:17;;;;;;;;;;;;;;;-144.99;85.93;52627.47;5046131;28;19986;-72
2023/01/16 06:17:43;;;;;;;;;;;;;;;-144.99;86.34;52635.63;5054192;28;19998;-74
2023/01/16 06:20:11;;;;;;;;;;;;;;;-144.99;86.62;52592.81;5046076;28;19955;-73
2023/01/16 06:22:38;;;;;;;;;;;;;;;-144.99;86.96;52609.13;5050029;28;20017;-72
2023/01/16 06:25:06;;;;;;;;;;;;;;;-144.99;85.81;52598.94;5046503;28;20420;-73
2023/01/16 06:27:32;;;;;;;;;;;;;;;-144.99;86.44;52570.38;5046958;28;19952;-73
2023/01/16 06:29:59;;;;;;;;;;;;;;;-144.99;86.07;52590.78;5050535;28;20311;-74
2023/01/16 06:32:25;;;;;;;;;;;;;;;-144.99;85.63;52545.94;5044366;28;19941;-73
2023/01/16 06:34:52;;;;;;;;;;;;;;;-144.99;85.92;52582.63;5047613;28;19949;-73
2023/01/16 06:37:18;;;;;;;;;;;;;;;-144.99;85.84;52603.00;5046970;28;19998;-73
2023/01/16 06:39:46;;;;;;;;;;;;;;;-144.99;85.72;52586.69;5061116;28;20039;-72
2023/01/16 06:42:13;;;;;;;;;;;;;;;-144.99;86.35;52578.53;5054717;28;19954;-73
2023/01/16 06:44:39;;;;;;;;;;;;;;;-144.99;85.58;52598.94;5044942;28;20043;-73
2023/01/16 06:47:06;;;;;;;;;;;;;;;-144.99;86.74;52615.25;5055169;28;19985;-74
2023/01/16 06:49:33;;;;;;;;;;;;;;;-144.99;87.20;52586.69;5073448;28;19960;-75
2023/01/16 06:52:00;;;;;;;;;;;;;;;-144.99;86.56;52603.00;5082989;28;20302;-73
2023/01/16 06:54:27;;;;;;;;;;;;;;;-144.99;85.99;52580.59;5048755;28;20019;-73
2023/01/16 06:56:55;;;;;;;;;;;;;;;-144.99;86.95;52578.53;5047430;28;19986;-73
2023/01/16 06:59:21;;;;;;;;;;;;;;;-144.99;87.41;52627.47;5046835;28;19970;-73
2023/01/16 07:01:48;;;;;;;;;;;;;;;-144.99;88.18;52594.84;5046890;28;20023;-73
2023/01/16 07:04:14;;;;;;;;;;;;;;;-144.99;91.43;52635.63;5046448;28;19958;-75
2023/01/16 07:06:42;;;;;;;;;;;;;;;-144.99;92.89;52594.84;5047244;28;20046;-72
2023/01/16 07:09:08;;;;;;;;;;;;;;;-144.99;92.26;52598.94;5035965;28;19966;-74
2023/01/16 07:11:35;;;;;;;;;;;;;;;-144.99;93.80;52619.31;5042896;28;19989;-74
2023/01/16 07:25:01;;;;;;;;;;;;;;;-144.99;94.76;52629.50;5050147;28;19968;-73
2023/01/16 07:27:28;;;;;;;;;;;;;;;-144.99;94.53;52631.53;5042246;28;19948;-73
2023/01/16 07:29:56;;;;;;;;;;;;;;;-144.99;94.37;52617.28;5048559;28;20019;-74
2023/01/16 07:32:23;;;;;;;;;;;;;;;-144.99;94.27;52611.16;5047832;28;19949;-73
2023/01/16 07:34:49;;;;;;;;;;;;;;;-144.99;94.06;52605.03;5048441;28;20025;-73
2023/01/16 07:37:16;;;;;;;;;;;;;;;-144.99;93.45;52611.16;5050833;28;19989;-74
2023/01/16 07:39:42;;;;;;;;;;;;;;;-144.99;92.49;52627.47;5063622;28;20476;-74
2023/01/16 07:42:09;;;;;;;;;;;;;;;-144.99;92.25;52603.00;5052780;28;19950;-73
2023/01/16 07:44:36;;;;;;;;;;;;;;;-144.99;91.67;52592.81;5049883;28;19993;-74
2023/01/16 07:47:04;;;;;;;;;;;;;;;-144.99;91.12;52637.66;5052990;28;19969;-73
2023/01/16 07:49:30;;;;;;;;;;;;;;;-144.99;90.48;52560.19;5053200;28;19966;-73
2023/01/16 07:51:57;;;;;;;;;;;;;;;-144.99;90.23;52590.78;5052939;28;19980;-72
2023/01/16 07:54:23;;;;;;;;;;;;;;;-144.99;90.04;52590.78;5056741;28;21086;-72
2023/01/16 07:56:50;;;;;;;;;;;;;;;-144.99;88.85;52582.63;5052680;28;19997;-72
2023/01/16 07:59:17;;;;;;;;;;;;;;;-144.99;88.09;52627.47;5060541;28;20073;-72
2023/01/16 08:01:45;;;;;;;;;;;;;;;-144.99;87.33;52558.16;5055933;28;20006;-73
2023/01/16 08:04:13;;;;;;;;;;;;;;;-144.99;86.47;52611.16;5049810;28;19954;-73
2023/01/16 08:06:43;;;;;;;;;;;;;;;-144.99;85.43;52562.25;5051201;28;19944;-71
2023/01/16 08:09:10;;;;;;;;;;;;;;;-144.99;84.92;52566.31;5051807;28;19971;-72
2023/01/16 08:11:38;;;;;;;;;;;;;;;-144.99;84.86;52603.00;5050778;28;19949;-72
2023/01/16 08:14:05;;;;;;;;;;;;;;;-144.99;84.41;52615.25;5049372;28;20309;-72
2023/01/16 08:16:31;;;;;;;;;;;;;;;-144.99;85.01;52578.53;5060094;28;19973;-73
2023/01/16 08:18:58;;;;;;;;;;;;;;;-144.99;84.04;52570.38;5052584;28;19956;-71
2023/01/16 08:21:26;;;;;;;;;;;;;;;-144.99;83.47;52550.00;5065808;28;20415;-72
2023/01/16 08:23:53;;;;;;;;;;;;;;;-144.99;84.52;52566.31;5056491;28;19966;-72
2023/01/16 08:26:19;;;;;;;;;;;;;;;-144.99;83.84;52603.00;5057609;28;20313;-72
2023/01/16 08:28:46;;;;;;;;;;;;;;;-144.99;84.36;52603.00;5055789;28;19994;-73
2023/01/16 08:31:13;;;;;;;;;;;;;;;-144.99;84.55;52503.13;5059456;28;20339;-72
2023/01/16 08:33:42;;;;;;;;;;;;;;;-144.99;84.96;52594.84;5053736;28;19947;-72
2023/01/16 08:36:10;;;;;;;;;;;;;;;-144.99;84.77;52558.16;5055258;28;19951;-72
2023/01/16 08:38:38;;;;;;;;;;;;;;;-144.99;84.83;52611.16;5067937;28;19953;-72
2023/01/16 08:51:21;;;;;;;;;;;;;;;-144.99;84.28;52586.69;5055853;28;19966;-72
2023/01/16 08:52:03;;;;;;;;;;;;;;;-144.99;81.07;52554.09;5053737;28;20025;-71
2023/01/16 08:54:31;;;;;;;;;;;;;;;-144.99;80.04;52574.47;5051660;28;20445;-73
2023/01/16 08:56:57;;;;;;;;;;;;;;;-144.99;79.56;52566.31;5054180;28;20013;-71
2023/01/16 08:59:24;;;;;;;;;;;;;;;-144.99;78.40;52562.25;5053542;28;19974;-71
2023/01/16 09:01:50;;;;;;;;;;;;;;;-144.99;76.73;52564.28;5064877;28;20132;-72
2023/01/16 09:04:17;;;;;;;;;;;;;;;-144.99;75.71;52586.69;5032457;28;20045;-71
2023/01/16 09:06:43;;;;;;;;;;;;;;;-144.99;74.36;52529.63;5048138;28;20006;-73
2023/01/16 09:09:10;;;;;;;;;;;;;;;-144.99;73.09;52558.16;5050113;28;20554;-70
2023/01/16 09:14:22;;;;;;;;;;;;;;;-144.99;73.63;52582.63;5049326;28;20051;-72
2023/01/16 09:16:49;;;;;;;;;;;;;;;-144.99;74.45;52560.19;5049518;28;20299;-73
2023/01/16 09:19:16;;;;;;;;;;;;;;;-144.99;74.49;52570.38;5050155;28;20464;-72
2023/01/16 09:21:42;;;;;;;;;;;;;;;-144.99;75.65;52603.00;5048457;28;20340;-72
2023/01/16 09:24:09;;;;;;;;;;;;;;;-144.99;75.99;52564.28;5047428;28;20352;-72
2023/01/16 09:26:35;;;;;;;;;;;;;;;-144.99;75.68;52570.38;5047931;28;19949;-72
2023/01/16 09:29:03;;;;;;;;;;;;;;;-144.99;75.60;52570.38;5049055;28;19960;-71
2023/01/16 09:31:30;;;;;;;;;;;;;;;-144.99;76.18;52558.16;5050797;28;19952;-72
2023/01/16 09:33:56;;;;;;;;;;;;;;;-144.99;76.07;52580.59;5055463;28;20387;-72
2023/01/16 09:36:23;;;;;;;;;;;;;;;-144.99;76.18;52578.53;5047468;28;19942;-72
2023/01/16 09:38:49;;;;;;;;;;;;;;;-144.99;76.18;52560.19;5047599;28;19989;-72
2023/01/16 09:43:35;;;;;;;;;;;;;;;-144.99;76.45;52564.28;5061389;28;19949;-72
2023/01/16 09:44:08;;;;;;;;;;;;;;;-144.99;76.58;52537.78;5046216;28;19961;-73
2023/01/16 09:46:37;;;;;;;;;;;;;;;-144.99;77.11;52564.28;5047270;28;19942;-72
2023/01/16 09:49:06;;;;;;;;;;;;;;;-144.99;77.00;52572.44;5061166;28;20377;-72
2023/01/16 09:51:35;;;;;;;;;;;;;;;-144.99;77.33;52582.63;5047358;28;20045;-71
2023/01/16 09:59:51;;;;;;;;;;;;;;;-144.99;78.03;52570.38;5010209;28;19970;-72
2023/01/16 10:02:21;;;;;;;;;;;;;;;-144.99;77.94;52558.16;5046361;28;19942;-72
2023/01/16 10:04:48;;;;;;;;;;;;;;;-144.99;78.39;52582.63;5051970;28;19961;-72
2023/01/16 10:07:36;;;;;;;;;;;;;;;-144.99;78.01;52592.81;5049149;28;19961;-72
2023/01/16 10:10:07;;;;;;;;;;;;;;;-144.99;77.96;52607.09;5050399;28;19948;-72
2023/01/16 10:12:35;;;;;;;;;;;;;;;-144.99;77.69;52554.09;5071578;28;19930;-73
2023/01/16 10:15:12;;;;;;;;;;;;;;;-144.99;77.65;52552.03;5038076;28;20471;-71
2023/01/16 10:17:45;;;;;;;;;;;;;;;-144.99;76.88;52574.47;5043365;28;20360;-72
2023/01/16 10:20:17;;;;;;;;;;;;;;;-144.99;76.04;52545.94;5047264;28;19962;-73
2023/01/16 10:22:49;;;;;;;;;;;;;;;-144.99;74.73;52570.38;5047373;28;20050;-73
2023/01/16 10:25:20;;;;;;;;;;;;;;;-144.99;75.08;52529.63;5047222;28;20461;-73
2023/01/16 10:27:52;;;;;;;;;;;;;;;-144.99;74.69;52570.38;5047384;28;20451;-73
2023/01/16 10:30:22;;;;;;;;;;;;;;;-144.99;75.11;52578.53;5034042;28;20005;-73
2023/01/16 10:32:51;;;;;;;;;;;;;;;-144.99;74.65;52562.25;5051772;28;19949;-70
2023/01/16 10:35:21;;;;;;;;;;;;;;;-144.99;73.71;52547.97;5050742;28;19981;-71
2023/01/16 10:37:49;;;;;;;;;;;;;;;-144.99;73.29;52513.31;5042694;28;19952;-72
2023/01/16 10:40:19;;;;;;;;;;;;;;;-144.99;72.91;52562.25;5056068;28;19966;-73
2023/01/16 10:51:07;;;;;;;;;;;;;;;-144.99;75.60;52603.00;5068789;28;20010;-73
2023/01/16 10:53:35;;;;;;;;;;;;;;;-144.99;75.49;52582.63;5065895;28;19948;-72
2023/01/16 10:56:02;;;;;;;;;;;;;;;-144.99;75.54;52558.16;5046713;28;19951;-72
2023/01/16 10:58:30;;;;;;;;;;;;;;;-144.99;75.93;52578.53;5047010;28;20054;-72
2023/01/16 11:01:00;;;;;;;;;;;;;;;-144.99;76.00;52554.09;5053865;28;20434;-72
2023/01/16 11:03:32;;;;;;;;;;;;;;;-144.99;74.95;52562.25;5050841;28;19969;-73
2023/01/16 11:06:07;;;;;;;;;;;;;;;-144.99;74.20;52562.25;5047236;28;20512;-72
2023/01/16 11:08:34;;;;;;;;;;;;;;;-144.99;73.51;52562.25;5047462;28;19952;-72
2023/01/16 11:11:01;;;;;;;;;;;;;;;-144.99;73.81;52558.16;5047003;28;19973;-72
2023/01/16 11:19:16;;;;;;;;;;;;;;;-144.99;73.75;52572.44;5043108;28;19954;-73
2023/01/16 11:21:43;;;;;;;;;;;;;;;-144.99;73.84;52578.53;5052533;28;20084;-73
2023/01/16 11:24:15;;;;;;;;;;;;;;;-144.99;73.47;52550.00;5040947;28;19961;-73
2023/01/16 11:26:42;;;;;;;;;;;;;;;-144.99;73.64;52590.78;5048010;28;20251;-72
2023/01/16 11:29:12;;;;;;;;;;;;;;;-144.99;74.10;52603.00;5062762;28;19969;-73
2023/01/16 11:31:40;;;;;;;;;;;;;;;-144.99;74.66;52574.47;5064535;28;19957;-73
2023/01/16 11:34:14;;;;;;;;;;;;;;;-144.99;74.43;52603.00;5046537;28;19998;-72
2023/01/16 11:36:41;;;;;;;;;;;;;;;-144.99;74.09;52554.09;5047196;28;20063;-73
2023/01/16 11:39:18;;;;;;;;;;;;;;;-144.99;74.34;52588.75;5045134;28;19965;-73
2023/01/16 11:41:46;;;;;;;;;;;;;;;-144.99;74.35;52562.25;5034147;28;20391;-72
2023/01/16 11:47:00;;;;;;;;;;;;;;;-144.99;74.79;52568.34;5041258;28;19951;-73
2023/01/16 11:49:28;;;;;;;;;;;;;;;-144.99;74.78;52590.78;5045668;28;20109;-73
2023/01/16 11:51:55;;;;;;;;;;;;;;;-144.99;74.96;52566.31;5045766;28;20404;-73
2023/01/16 11:54:25;;;;;;;;;;;;;;;-144.99;74.67;52566.31;5045771;28;20019;-73
2023/01/16 11:57:00;;;;;;;;;;;;;;;-144.99;74.54;52578.53;5052396;28;19943;-74
2023/01/16 11:59:40;;;;;;;;;;;;;;;-144.99;74.78;52582.63;5034449;28;20442;-74
2023/01/16 12:02:19;;;;;;;;;;;;;;;-144.99;74.73;52578.53;5045969;28;19993;-74
2023/01/16 12:07:37;;;;;;;;;;;;;;;-144.99;73.95;52594.84;5026989;28;20718;-74
2023/01/16 12:10:06;;;;;;;;;;;;;;;-144.99;73.73;52560.19;5053956;28;19970;-73
2023/01/16 12:15:23;;;;;;;;;;;;;;;-144.99;74.05;52603.00;5040118;28;20353;-74
2023/01/16 12:18:00;;;;;;;;;;;;;;;-144.99;73.91;52594.84;5054420;28;19942;-73
2023/01/16 12:20:31;;;;;;;;;;;;;;;-144.99;73.77;52590.78;5056540;28;20407;-74
2023/01/16 12:23:05;;;;;;;;;;;;;;;-144.99;73.91;52605.03;5055573;28;20321;-75
2023/01/16 12:25:37;;;;;;;;;;;;;;;-144.99;73.47;52590.78;5050595;28;19965;-73
2023/01/16 12:28:10;;;;;;;;;;;;;;;-144.99;73.48;52574.47;5049992;28;20033;-73
2023/01/16 12:30:47;;;;;;;;;;;;;;;-144.99;73.73;52627.47;5051697;28;20002;-74
2023/01/16 12:33:21;;;;;;;;;;;;;;;-144.99;73.77;52574.47;5054299;28;20410;-74
2023/01/16 12:35:55;;;;;;;;;;;;;;;-144.99;73.89;52521.47;5047910;28;19946;-73
2023/01/16 12:38:27;;;;;;;;;;;;;;;-144.99;73.22;52566.31;5049885;28;20389;-74
2023/01/16 12:44:01;;;;;;;;;;;;;;;-144.99;72.67;52574.47;5048985;28;19949;-74
2023/01/16 12:46:33;;;;;;;;;;;;;;;-144.99;72.88;52554.09;5051589;28;19962;-73
2023/01/16 12:49:07;;;;;;;;;;;;;;;-144.99;72.49;52580.59;5048934;28;20383;-73
2023/01/16 12:51:45;;;;;;;;;;;;;;;-144.99;72.19;52550.00;5049237;28;20468;-73
2023/01/16 12:54:17;;;;;;;;;;;;;;;-144.99;72.31;52590.78;5047479;28;19953;-72
2023/01/16 12:56:51;;;;;;;;;;;;;;;-144.99;72.31;52582.63;5042690;28;20027;-72
2023/01/16 12:59:19;;;;;;;;;;;;;;;-144.99;72.15;52562.25;5047653;28;20412;-72
2023/01/16 13:01:48;;;;;;;;;;;;;;;-144.99;71.94;52578.53;5047139;28;19947;-72
2023/01/16 13:04:21;;;;;;;;;;;;;;;-144.99;72.29;52554.09;5042800;28;20106;-74
2023/01/16 13:06:49;;;;;;;;;;;;;;;-144.99;71.83;52625.44;5048343;28;20372;-73
2023/01/16 13:09:23;;;;;;;;;;;;;;;-144.99;72.33;52586.69;5047416;28;20009;-73
2023/01/16 13:14:42;;;;;;;;;;;;;;;-144.99;72.04;52598.94;5024822;28;19946;-74
2023/01/16 13:17:12;;;;;;;;;;;;;;;-144.99;71.80;52627.47;5043945;28;19950;-73
2023/01/16 13:19:41;;;;;;;;;;;;;;;-144.99;72.03;52611.16;5047924;28;20367;-73
2023/01/16 13:22:15;;;;;;;;;;;;;;;-144.99;72.35;52576.50;5048369;28;19993;-73
2023/01/16 13:24:47;;;;;;;;;;;;;;;-144.99;72.28;52600.97;5046078;28;19943;-73
2023/01/16 13:27:16;;;;;;;;;;;;;;;-144.99;72.24;52590.78;5046243;28;20462;-74
2023/01/16 13:29:46;;;;;;;;;;;;;;;-144.99;72.05;52574.47;5050491;28;20416;-72
2023/01/16 13:32:19;;;;;;;;;;;;;;;-144.99;71.86;52574.47;5049784;28;19952;-74